createdAt,value
2022-12-09T00:01:31.942Z,71.71
2022-12-09T00:04:05.710Z,71.76
2022-12-09T00:06:35.248Z,71.61
2022-12-09T00:09:07.470Z,71.65
2022-12-09T00:11:41.129Z,71.92
2022-12-09T00:14:14.057Z,71.33
2022-12-09T00:16:43.255Z,71.71
2022-12-09T00:19:16.897Z,71.29
2022-12-09T00:21:48.817Z,71.12
2022-12-09T00:24:28.284Z,71.91
2022-12-09T00:26:58.753Z,71.46
2022-12-09T00:29:28.732Z,71.89
2022-12-09T00:32:00.382Z,71.59
2022-12-09T00:34:37.661Z,71.71
2022-12-09T00:37:12.176Z,71.63
2022-12-09T00:39:46.977Z,71.49
2022-12-09T00:42:18.753Z,71.87
2022-12-09T00:44:51.170Z,71.42
2022-12-09T00:47:24.753Z,71.82
2022-12-09T00:49:56.078Z,71.47
2022-12-09T00:52:28.354Z,71.71
2022-12-09T00:55:01.028Z,71.99
2022-12-09T00:57:42.560Z,71.54
2022-12-09T01:00:13.321Z,71.86
2022-12-09T01:02:43.514Z,71.65
2022-12-09T01:05:15.562Z,71.82
2022-12-09T01:07:46.101Z,71.94
2022-12-09T01:10:21.339Z,71.84
2022-12-09T01:12:52.648Z,71.59
2022-12-09T01:15:28.374Z,71.97
2022-12-09T01:18:00.206Z,71.49
2022-12-09T01:20:32.533Z,71.73
2022-12-09T01:23:01.802Z,71.58
2022-12-09T01:25:35.432Z,71.63
2022-12-09T01:28:06.188Z,72.04
2022-12-09T01:30:39.641Z,71.53
2022-12-09T01:33:11.247Z,71.74
2022-12-09T01:35:41.699Z,71.69
2022-12-09T01:38:10.148Z,71.89
2022-12-09T01:40:47.091Z,71.76
2022-12-09T01:43:21.523Z,71.60
2022-12-09T01:45:51.849Z,71.63
2022-12-09T01:48:22.586Z,71.89
2022-12-09T01:50:55.517Z,71.67
2022-12-09T01:53:29.615Z,72.09
2022-12-09T01:56:07.098Z,71.99
2022-12-09T01:58:36.230Z,72.15
2022-12-09T02:01:04.855Z,72.25
2022-12-09T02:03:33.116Z,72.09
2022-12-09T02:06:01.445Z,72.16
2022-12-09T02:08:34.043Z,71.72
2022-12-09T02:11:16.640Z,71.79
2022-12-09T02:13:58.466Z,71.81
2022-12-09T02:16:34.441Z,71.92
2022-12-09T02:19:23.300Z,71.48
2022-12-09T02:22:01.758Z,71.59
2022-12-09T02:24:47.098Z,71.93
2022-12-09T02:27:25.344Z,71.68
2022-12-09T02:30:09.657Z,71.87
2022-12-09T02:33:12.709Z,71.77
2022-12-09T02:35:47.697Z,72.13
2022-12-09T02:38:24.582Z,72.20
2022-12-09T02:41:03.377Z,71.66
2022-12-09T02:43:37.466Z,72.21
2022-12-09T02:46:17.499Z,72.09
2022-12-09T02:48:54.133Z,72.16
2022-12-09T02:51:37.886Z,72.12
2022-12-09T02:54:12.490Z,72.11
2022-12-09T02:56:43.606Z,72.28
2022-12-09T02:59:15.829Z,72.69
2022-12-09T03:02:02.277Z,72.52
2022-12-09T03:04:33.571Z,72.29
2022-12-09T03:07:20.629Z,72.28
2022-12-09T03:09:57.344Z,72.35
2022-12-09T03:12:37.403Z,72.05
2022-12-09T03:15:11.970Z,72.29
2022-12-09T03:17:47.285Z,72.33
2022-12-09T03:20:21.284Z,72.29
2022-12-09T03:22:53.841Z,72.40
2022-12-09T03:25:27.933Z,72.14
2022-12-09T03:28:06.160Z,72.20
2022-12-09T03:30:39.698Z,72.39
2022-12-09T03:33:10.402Z,72.13
2022-12-09T03:35:44.595Z,72.79
2022-12-09T03:38:20.493Z,72.32
2022-12-09T03:40:56.406Z,72.25
2022-12-09T03:43:35.976Z,72.40
2022-12-09T03:46:09.586Z,72.04
2022-12-09T03:48:41.349Z,72.15
2022-12-09T03:51:19.136Z,72.35
2022-12-09T03:54:02.647Z,72.21
2022-12-09T03:56:39.181Z,72.18
2022-12-09T03:59:13.794Z,72.39
2022-12-09T04:01:51.738Z,72.62
2022-12-09T04:04:23.586Z,72.52
2022-12-09T04:06:55.835Z,72.67
2022-12-09T04:09:31.440Z,72.62
2022-12-09T04:12:07.760Z,72.38
2022-12-09T04:14:37.094Z,72.25
2022-12-09T04:17:26.482Z,72.73
2022-12-09T04:19:54.532Z,72.61
2022-12-09T04:22:23.515Z,72.20
2022-12-09T04:24:57.936Z,72.12
2022-12-09T04:27:26.918Z,72.49
2022-12-09T04:29:55.468Z,72.46
2022-12-09T04:32:23.944Z,72.23
2022-12-09T04:34:52.312Z,72.49
2022-12-09T04:37:20.669Z,72.79
2022-12-09T04:39:48.669Z,72.67
2022-12-09T04:42:18.929Z,72.67
2022-12-09T04:44:48.128Z,72.36
2022-12-09T04:47:17.271Z,72.13
2022-12-09T04:49:46.516Z,72.43
2022-12-09T04:52:26.358Z,72.57
2022-12-09T04:54:56.559Z,72.42
2022-12-09T04:57:28.501Z,72.54
2022-12-09T05:00:03.111Z,72.15
2022-12-09T05:02:40.455Z,72.15
2022-12-09T05:05:10.859Z,72.12
2022-12-09T05:07:42.295Z,72.22
2022-12-09T05:10:12.085Z,72.00
2022-12-09T05:12:45.915Z,72.17
2022-12-09T05:15:18.982Z,72.25
2022-12-09T05:17:49.083Z,72.71
2022-12-09T05:20:19.944Z,72.42
2022-12-09T05:22:48.360Z,72.37
2022-12-09T05:25:16.375Z,72.43
2022-12-09T05:27:48.866Z,72.67
2022-12-09T05:30:17.942Z,72.11
2022-12-09T05:32:47.010Z,72.61
2022-12-09T05:35:15.383Z,72.79
2022-12-09T05:37:43.719Z,72.73
2022-12-09T05:40:12.492Z,72.55
2022-12-09T05:42:42.157Z,72.77
2022-12-09T05:45:13.268Z,72.92
2022-12-09T05:47:42.666Z,72.98
2022-12-09T05:50:13.888Z,72.99
2022-12-09T05:52:45.003Z,72.68
2022-12-09T05:55:14.195Z,72.67
2022-12-09T05:57:47.670Z,72.63
2022-12-09T06:00:23.241Z,72.98
2022-12-09T06:02:53.302Z,72.58
2022-12-09T06:05:37.236Z,72.71
2022-12-09T06:08:10.039Z,72.59
2022-12-09T06:10:44.200Z,72.61
2022-12-09T06:13:27.352Z,72.72
2022-12-09T06:16:13.807Z,72.80
2022-12-09T06:18:47.751Z,73.24
2022-12-09T06:21:19.063Z,73.33
2022-12-09T06:23:48.330Z,72.90
2022-12-09T06:26:19.093Z,72.65
2022-12-09T06:28:51.462Z,73.14
2022-12-09T06:31:43.519Z,72.97
2022-12-09T06:37:02.105Z,73.40
2022-12-09T06:39:32.025Z,72.74
2022-12-09T06:42:06.845Z,73.39
2022-12-09T06:44:40.946Z,73.04
2022-12-09T06:47:13.986Z,73.31
2022-12-09T06:49:48.776Z,73.18
2022-12-09T06:52:20.831Z,73.12
2022-12-09T06:54:51.168Z,73.18
2022-12-09T06:57:23.385Z,73.14
2022-12-09T06:59:54.460Z,73.23
2022-12-09T07:02:34.064Z,73.44
2022-12-09T07:05:08.168Z,73.35
2022-12-09T07:07:37.513Z,73.31
2022-12-09T07:10:15.219Z,73.05
2022-12-09T07:12:44.143Z,73.05
2022-12-09T07:15:14.090Z,73.47
2022-12-09T07:17:45.634Z,73.04
2022-12-09T07:20:17.876Z,73.40
2022-12-09T07:22:53.845Z,73.50
2022-12-09T07:25:22.201Z,73.26
2022-12-09T07:27:51.787Z,73.71
2022-12-09T07:30:22.684Z,73.29
2022-12-09T07:32:58.147Z,73.78
2022-12-09T07:35:27.620Z,73.90
2022-12-09T07:37:58.048Z,73.81
2022-12-09T07:40:27.233Z,73.17
2022-12-09T07:43:00.783Z,73.88
2022-12-09T07:45:30.228Z,73.58
2022-12-09T07:48:01.536Z,73.40
2022-12-09T07:50:33.864Z,73.44
2022-12-09T07:53:02.685Z,73.42
2022-12-09T07:55:36.319Z,72.78
2022-12-09T07:58:05.737Z,72.50
2022-12-09T08:00:38.476Z,72.49
2022-12-09T08:03:08.142Z,72.05
2022-12-09T08:05:36.986Z,71.97
2022-12-09T08:08:05.822Z,71.43
2022-12-09T08:10:36.240Z,71.44
2022-12-09T08:13:06.760Z,71.22
2022-12-09T08:15:35.215Z,71.07
2022-12-09T08:18:04.779Z,70.66
2022-12-09T08:20:34.685Z,70.46
2022-12-09T08:23:03.508Z,70.27
2022-12-09T08:25:31.678Z,70.07
2022-12-09T08:28:00.295Z,70.31
2022-12-09T08:30:28.790Z,70.43
2022-12-09T08:32:58.052Z,69.82
2022-12-09T08:35:29.973Z,69.54
2022-12-09T08:37:59.500Z,68.91
2022-12-09T08:40:27.964Z,69.32
2022-12-09T08:42:57.380Z,69.41
2022-12-09T08:45:26.195Z,69.24
2022-12-09T08:47:57.288Z,69.01
2022-12-09T08:50:26.449Z,69.00
2022-12-09T08:52:56.858Z,68.78
2022-12-09T08:55:27.119Z,68.15
2022-12-09T08:57:56.042Z,68.08
2022-12-09T09:00:26.045Z,67.52
2022-12-09T09:02:54.806Z,65.88
2022-12-09T09:05:23.203Z,62.44
2022-12-09T09:07:51.425Z,59.42
2022-12-09T09:10:19.792Z,58.13
2022-12-09T09:12:49.509Z,56.98
2022-12-09T09:15:18.081Z,56.21
2022-12-09T09:17:51.243Z,55.91
2022-12-09T09:20:20.056Z,55.70
2022-12-09T09:22:48.416Z,55.05
2022-12-09T09:25:16.995Z,54.63
2022-12-09T09:27:45.308Z,55.19
2022-12-09T09:30:15.968Z,55.35
2022-12-09T09:32:44.617Z,55.56
2022-12-09T09:35:12.889Z,55.06
2022-12-09T09:40:43.102Z,56.31
2022-12-09T09:43:17.582Z,57.29
2022-12-09T09:45:47.974Z,57.95
2022-12-09T09:48:21.637Z,59.36
2022-12-09T09:50:55.066Z,59.55
2022-12-09T09:53:26.841Z,59.19
2022-12-09T09:56:00.035Z,58.23
2022-12-09T09:58:38.358Z,57.00
2022-12-09T10:01:13.423Z,55.78
2022-12-09T10:03:54.312Z,52.90
2022-12-09T10:06:32.186Z,50.97
2022-12-09T10:09:06.034Z,50.24
2022-12-09T10:11:41.975Z,50.40
2022-12-09T10:14:16.462Z,49.53
2022-12-09T10:17:02.284Z,48.85
2022-12-09T10:19:33.842Z,48.77
2022-12-09T10:22:12.912Z,50.13
2022-12-09T10:24:48.495Z,49.23
2022-12-09T10:27:29.106Z,46.89
2022-12-09T10:30:02.885Z,43.55
2022-12-09T10:32:36.595Z,43.84
2022-12-09T10:35:15.446Z,45.46
2022-12-09T10:37:44.548Z,46.87
2022-12-09T10:40:22.977Z,48.05
2022-12-09T10:43:10.950Z,47.14
2022-12-09T10:48:44.806Z,45.79
2022-12-09T10:51:18.614Z,44.53
2022-12-09T10:53:56.825Z,42.44
2022-12-09T10:56:34.260Z,42.05
2022-12-09T10:59:18.744Z,42.71
2022-12-09T11:01:53.045Z,42.82
2022-12-09T11:04:27.287Z,44.34
2022-12-09T11:07:00.248Z,46.06
2022-12-09T11:09:34.660Z,47.29
2022-12-09T11:12:05.680Z,48.16
2022-12-09T11:14:37.609Z,50.14
2022-12-09T11:17:16.505Z,50.01
2022-12-09T11:19:49.710Z,50.08
2022-12-09T11:22:28.509Z,50.31
2022-12-09T11:25:13.065Z,49.56
2022-12-09T11:27:44.073Z,49.18
2022-12-09T11:30:16.762Z,49.52
2022-12-09T11:33:02.237Z,48.06
2022-12-09T11:35:40.480Z,45.74
2022-12-09T11:38:22.489Z,45.13
2022-12-09T11:41:01.890Z,44.94
2022-12-09T11:43:41.529Z,46.34
2022-12-09T11:46:19.409Z,46.82
2022-12-09T11:48:54.810Z,45.82
2022-12-09T11:51:28.490Z,46.41
2022-12-09T11:54:03.646Z,46.81
2022-12-09T11:56:32.057Z,48.11
2022-12-09T11:59:04.406Z,47.90
2022-12-09T12:01:44.397Z,48.04
2022-12-09T12:04:16.375Z,46.37
2022-12-09T12:06:56.906Z,43.38
2022-12-09T12:09:41.536Z,42.32
2022-12-09T12:12:23.650Z,41.21
2022-12-09T12:14:58.564Z,41.98
2022-12-09T12:17:37.688Z,41.96
2022-12-09T12:20:14.547Z,42.26
2022-12-09T12:23:17.476Z,44.17
2022-12-09T12:25:55.939Z,44.66
2022-12-09T12:28:45.858Z,45.24
2022-12-09T12:31:27.226Z,45.74
2022-12-09T12:34:24.027Z,46.22
2022-12-09T12:37:02.099Z,46.52
2022-12-09T12:39:49.188Z,46.58
2022-12-09T12:42:31.281Z,46.98
2022-12-09T12:45:21.652Z,47.14
2022-12-09T12:47:56.468Z,47.34
2022-12-09T12:50:35.363Z,47.32
2022-12-09T12:53:13.364Z,48.17
2022-12-09T12:55:51.278Z,48.89
2022-12-09T12:58:34.634Z,48.75
2022-12-09T13:01:08.640Z,48.75
2022-12-09T13:03:53.040Z,49.20
2022-12-09T13:06:25.111Z,50.38
2022-12-09T13:09:02.695Z,50.52
2022-12-09T13:11:42.076Z,50.43
2022-12-09T13:14:17.183Z,51.19
2022-12-09T13:16:47.108Z,52.00
2022-12-09T13:19:20.132Z,52.70
2022-12-09T13:21:48.968Z,53.30
2022-12-09T13:24:31.101Z,54.58
2022-12-09T13:27:10.755Z,54.84
2022-12-09T13:29:45.225Z,55.74
2022-12-09T13:32:32.841Z,56.11
2022-12-09T13:35:08.021Z,56.75
2022-12-09T13:37:58.361Z,56.96
2022-12-09T13:40:42.018Z,57.12
2022-12-09T13:43:22.627Z,57.44
2022-12-09T13:45:55.136Z,57.93
2022-12-09T13:48:44.086Z,57.90
2022-12-09T13:51:13.533Z,58.17
2022-12-09T13:53:50.488Z,59.06
2022-12-09T13:56:26.963Z,59.36
2022-12-09T13:59:40.075Z,58.75
2022-12-09T14:02:23.387Z,59.70
2022-12-09T14:05:11.553Z,60.23
2022-12-09T14:07:44.024Z,60.58
2022-12-09T14:10:36.964Z,60.45
2022-12-09T14:13:22.729Z,60.66
2022-12-09T14:16:18.537Z,61.15
2022-12-09T14:18:46.884Z,61.46
2022-12-09T14:21:33.455Z,61.79
2022-12-09T14:24:36.842Z,61.83
2022-12-09T14:27:19.921Z,61.85
2022-12-09T14:29:51.985Z,62.32
2022-12-09T14:32:54.276Z,62.36
2022-12-09T14:35:28.958Z,62.93
2022-12-09T14:38:07.503Z,63.48
2022-12-09T14:40:57.840Z,63.75
2022-12-09T14:43:39.860Z,64.22
2022-12-09T14:46:21.664Z,64.50
2022-12-09T14:48:56.187Z,64.60
2022-12-09T14:51:26.577Z,65.03
2022-12-09T14:53:57.782Z,65.10
2022-12-09T14:56:26.728Z,65.26
2022-12-09T14:58:59.668Z,65.54
2022-12-09T15:01:27.613Z,65.63
2022-12-09T15:03:58.837Z,65.76
2022-12-09T15:06:28.241Z,65.85
2022-12-09T15:08:58.326Z,65.86
2022-12-09T15:11:31.221Z,66.08
2022-12-09T15:14:22.322Z,65.91
2022-12-09T15:16:51.114Z,66.17
2022-12-09T15:19:58.243Z,66.43
2022-12-09T15:22:21.803Z,66.46
2022-12-09T15:24:51.171Z,66.57
2022-12-09T15:27:21.483Z,66.82
2022-12-09T15:29:49.793Z,66.90
2022-12-09T15:32:21.734Z,67.02
2022-12-09T15:34:51.145Z,67.12
2022-12-09T15:37:23.086Z,67.32
2022-12-09T15:40:00.821Z,67.38
2022-12-09T15:42:30.805Z,67.87
2022-12-09T15:45:04.416Z,67.53
2022-12-09T15:47:39.761Z,68.00
2022-12-09T15:50:18.099Z,67.86
2022-12-09T15:52:50.923Z,68.32
2022-12-09T15:55:21.528Z,68.15
2022-12-09T15:57:51.621Z,68.20
2022-12-09T16:00:20.335Z,68.37
2022-12-09T16:02:50.206Z,68.40
2022-12-09T16:05:25.592Z,68.74
2022-12-09T16:07:58.719Z,69.02
2022-12-09T16:10:27.606Z,69.13
2022-12-09T16:13:07.831Z,69.41
2022-12-09T16:15:45.956Z,69.28
2022-12-09T16:18:18.081Z,69.22
2022-12-09T16:20:58.744Z,69.46
2022-12-09T16:23:27.374Z,69.62
2022-12-09T16:26:04.894Z,69.75
2022-12-09T16:28:35.116Z,69.54
2022-12-09T16:31:16.399Z,69.85
2022-12-09T16:33:49.300Z,70.03
2022-12-09T16:36:21.923Z,70.19
2022-12-09T16:39:32.159Z,70.13
2022-12-09T16:42:02.926Z,70.50
2022-12-09T16:44:34.060Z,70.03
2022-12-09T16:47:13.991Z,70.15
2022-12-09T16:49:45.373Z,70.40
2022-12-09T16:52:16.687Z,70.57
2022-12-09T16:54:51.031Z,70.62
2022-12-09T16:57:23.565Z,70.56
2022-12-09T16:59:57.076Z,70.91
2022-12-09T17:03:01.186Z,70.90
2022-12-09T17:05:31.279Z,70.85
2022-12-09T17:08:04.279Z,70.78
2022-12-09T17:10:36.656Z,71.00
2022-12-09T17:13:24.643Z,71.38
2022-12-09T17:16:02.949Z,70.99
2022-12-09T17:18:32.532Z,71.28
2022-12-09T17:21:08.568Z,71.35
2022-12-09T17:26:40.810Z,71.33
2022-12-09T17:29:13.077Z,71.21
2022-12-09T17:31:43.555Z,70.91
2022-12-09T17:34:15.660Z,71.16
2022-12-09T17:36:50.236Z,71.12
2022-12-09T17:39:27.830Z,71.60
2022-12-09T17:42:19.919Z,71.20
2022-12-09T17:44:51.024Z,71.17
2022-12-09T17:47:22.535Z,70.94
2022-12-09T17:49:55.455Z,71.26
2022-12-09T17:52:33.341Z,71.47
2022-12-09T17:55:08.368Z,71.00
2022-12-09T17:57:39.464Z,70.92
2022-12-09T18:00:13.086Z,70.93
2022-12-09T18:02:46.315Z,71.12
2022-12-09T18:05:16.087Z,71.02
2022-12-09T18:07:49.275Z,70.77
2022-12-09T18:10:27.641Z,70.78
2022-12-09T18:13:14.427Z,71.10
2022-12-09T18:15:43.380Z,70.82
2022-12-09T18:18:13.743Z,70.71
2022-12-09T18:20:43.761Z,70.46
2022-12-09T18:23:14.583Z,70.76
2022-12-09T18:25:45.417Z,71.06
2022-12-09T18:28:30.722Z,70.92
2022-12-09T18:31:00.349Z,70.72
2022-12-09T18:33:30.236Z,70.96
2022-12-09T18:36:01.966Z,71.20
2022-12-09T18:38:34.935Z,71.04
2022-12-09T18:44:14.073Z,71.04
2022-12-09T18:50:25.689Z,71.15
2022-12-09T18:53:00.041Z,70.88
2022-12-09T19:48:34.853Z,72.40
2022-12-09T22:04:37.992Z,73.90
2022-12-09T22:32:49.197Z,73.92
2022-12-09T22:37:42.539Z,73.89
2022-12-09T22:41:45.345Z,73.88
